Time;durP1;ratioP1;P1;durP2;ratioP2;P2;SDS_P1;SDS_P2;PMS_P1;PMS_P2;Temp;Humidity;BMP_temperature;BMP_pressure;BME280_temperature;BME280_humidity;BME280_pressure;Samples;Min_cycle;Max_cycle;Signal;HPM_P1;HPM_P2
2022/10/26 00:00:39;;;;;;;12.07;5.28;;;;;;;16.51;56.77;95113.22;4179015;28;20068;-60
2022/10/26 00:02:41;;;;;;;10.27;5.32;;;;;;;16.52;56.89;95117.50;4179596;28;20053;-57
2022/10/26 00:04:43;;;;;;;12.80;4.88;;;;;;;16.46;57.09;95113.78;4179659;28;20056;-59
2022/10/26 00:06:45;;;;;;;12.82;4.85;;;;;;;16.50;57.09;95116.88;4180093;28;20057;-57
2022/10/26 00:08:47;;;;;;;15.45;5.47;;;;;;;16.56;56.73;95110.81;4180835;28;20136;-59
2022/10/26 00:10:48;;;;;;;14.13;5.25;;;;;;;16.56;56.66;95109.03;4172569;28;20457;-58
2022/10/26 00:12:50;;;;;;;13.60;5.38;;;;;;;16.60;56.60;95106.81;4175085;28;20049;-60
2022/10/26 00:14:52;;;;;;;13.00;5.00;;;;;;;16.65;56.42;95108.88;4177942;28;20056;-59
2022/10/26 00:16:54;;;;;;;12.70;5.00;;;;;;;16.67;56.27;95109.53;4162609;28;20073;-59
2022/10/26 00:18:55;;;;;;;14.63;5.05;;;;;;;16.61;56.49;95116.41;4163635;28;20053;-59
2022/10/26 00:21:03;;;;;;;13.13;4.80;;;;;;;16.52;56.75;95118.34;4168046;28;20049;-60
2022/10/26 00:23:04;;;;;;;15.07;4.97;;;;;;;16.54;56.44;95115.47;4171379;28;20060;-57
2022/10/26 00:25:06;;;;;;;18.58;5.13;;;;;;;16.57;56.56;95115.13;4175491;28;20059;-58
2022/10/26 00:27:08;;;;;;;9.10;4.63;;;;;;;16.60;56.35;95112.09;4170373;28;20192;-57
2022/10/26 00:29:13;;;;;;;11.35;4.72;;;;;;;16.61;56.18;95119.03;4178828;28;20076;-58
2022/10/26 00:31:15;;;;;;;8.07;4.43;;;;;;;16.60;56.48;95117.38;4164272;28;20073;-57
2022/10/26 00:33:17;;;;;;;10.85;4.68;;;;;;;16.60;56.24;95117.38;4178122;28;20048;-57
2022/10/26 00:35:18;;;;;;;9.02;4.60;;;;;;;16.57;56.21;95126.53;4179961;28;20045;-58
2022/10/26 00:37:24;;;;;;;9.98;4.35;;;;;;;16.64;56.18;95123.94;4168890;28;20049;-58
2022/10/26 00:39:26;;;;;;;10.32;4.38;;;;;;;16.63;56.21;95124.13;4177378;28;20493;-60
2022/10/26 00:41:30;;;;;;;13.32;4.15;;;;;;;16.65;55.86;95114.19;4178219;28;20051;-58
2022/10/26 00:43:36;;;;;;;13.73;4.85;;;;;;;16.57;55.72;95113.28;4180183;28;20053;-58
2022/10/26 00:45:38;;;;;;;10.32;4.40;;;;;;;16.56;56.11;95116.97;4177977;28;20132;-57
2022/10/26 00:47:45;;;;;;;9.70;4.18;;;;;;;16.54;56.13;95115.47;4180009;28;20057;-56
2022/10/26 00:49:48;;;;;;;12.40;5.05;;;;;;;16.47;56.20;95112.75;4179846;28;20055;-59
2022/10/26 00:51:52;;;;;;;12.48;4.43;;;;;;;16.49;56.24;95110.75;4194915;28;20072;-59
2022/10/26 00:53:53;;;;;;;;;;;;;;;16.49;56.28;95107.28;4179879;28;20750;-59
2022/10/26 00:55:55;;;;;;;8.85;4.45;;;;;;;16.43;56.29;95105.38;4172144;28;19960;-57
2022/10/26 00:57:58;;;;;;;12.45;3.83;;;;;;;16.45;56.37;95106.03;4171752;28;20059;-58
2022/10/26 01:00:00;;;;;;;14.90;5.23;;;;;;;16.42;56.65;95099.28;4179757;28;20524;-58
2022/10/26 01:02:02;;;;;;;17.45;4.60;;;;;;;16.41;56.89;95102.91;4162427;28;20045;-58
2022/10/26 01:04:04;;;;;;;12.93;4.82;;;;;;;16.42;56.86;95103.75;4169945;28;20143;-58
2022/10/26 01:06:07;;;;;;;11.13;4.28;;;;;;;16.50;56.66;95103.66;4179266;28;20131;-58
2022/10/26 01:08:09;;;;;;;8.23;4.13;;;;;;;16.50;56.42;95098.38;4163231;28;20084;-59
2022/10/26 01:10:12;;;;;;;9.77;4.55;;;;;;;16.49;56.36;95102.81;4163300;28;20955;-59
2022/10/26 01:12:14;;;;;;;7.90;4.25;;;;;;;16.50;56.02;95098.38;4171104;28;20452;-58
2022/10/26 01:14:17;;;;;;;11.75;5.00;;;;;;;16.48;56.30;95095.91;4168024;28;20148;-59
2022/10/26 01:16:29;;;;;;;8.50;4.27;;;;;;;16.48;56.27;95097.75;4160887;28;20073;-57
2022/10/26 01:18:46;;;;;;;11.30;5.22;;;;;;;16.48;56.22;95095.91;4162316;28;20052;-58
2022/10/26 01:21:23;;;;;;;11.07;4.40;;;;;;;16.43;56.39;95097.47;4167890;28;20049;-60
2022/10/26 01:23:27;;;;;;;7.20;4.15;;;;;;;16.39;56.55;95089.09;4167421;28;20045;-59
2022/10/26 01:26:00;;;;;;;13.82;4.25;;;;;;;16.40;56.47;95096.00;4178921;28;20053;-58
2022/10/26 01:28:09;;;;;;;7.82;4.13;;;;;;;16.45;56.19;95095.44;4170314;28;20137;-58
2022/10/26 01:30:15;;;;;;;7.90;3.90;;;;;;;16.46;56.10;95105.03;4166526;28;20045;-57
2022/10/26 01:32:23;;;;;;;6.80;3.85;;;;;;;16.45;55.86;95100.75;4155730;28;20056;-59
2022/10/26 01:34:44;;;;;;;10.50;4.07;;;;;;;16.40;56.04;95100.47;4165285;28;20172;-59
2022/10/26 01:36:56;;;;;;;12.50;4.25;;;;;;;16.28;56.30;95098.31;4172466;28;20053;-58
2022/10/26 01:39:06;;;;;;;8.00;3.88;;;;;;;16.21;56.41;95097.41;4174686;28;20147;-59
2022/10/26 01:41:25;;;;;;;13.18;4.43;;;;;;;16.22;56.45;95088.47;4176754;28;20041;-60
2022/10/26 01:43:29;;;;;;;7.13;4.05;;;;;;;16.22;56.61;95088.47;4170389;28;20461;-58
2022/10/26 01:45:32;;;;;;;7.15;3.92;;;;;;;16.20;56.49;95082.56;4164851;28;20052;-59
2022/10/26 01:47:35;;;;;;;5.93;3.92;;;;;;;16.17;56.56;95086.38;4171852;28;20049;-58
2022/10/26 01:49:42;;;;;;;8.85;4.07;;;;;;;16.18;56.54;95081.91;4177611;28;20171;-57
2022/10/26 01:51:46;;;;;;;12.77;4.13;;;;;;;16.19;56.40;95078.25;4169178;28;20071;-58
2022/10/26 01:53:47;;;;;;;9.15;3.72;;;;;;;16.14;56.61;95083.28;4178109;28;20580;-59
2022/10/26 01:55:51;;;;;;;7.25;3.75;;;;;;;16.14;56.57;95081.47;4177123;28;20135;-58
2022/10/26 01:57:59;;;;;;;11.48;4.28;;;;;;;16.15;56.69;95082.28;4164771;28;20080;-56
2022/10/26 02:00:08;;;;;;;10.32;3.60;;;;;;;16.14;56.70;95085.94;4172196;28;20075;-56
2022/10/26 02:02:28;;;;;;;11.27;4.30;;;;;;;15.41;58.51;95079.59;4176917;28;20567;-63
2022/10/26 02:04:51;;;;;;;9.68;4.25;;;;;;;15.42;58.86;95081.22;4175059;28;20135;-64
2022/10/26 02:07:11;;;;;;;12.60;4.70;;;;;;;15.48;58.83;95076.03;4171647;28;20402;-63
2022/10/26 02:09:21;;;;;;;7.60;4.18;;;;;;;15.63;58.59;95080.53;4174864;28;20132;-62
2022/10/26 02:11:37;;;;;;;10.20;4.07;;;;;;;15.70;58.34;95078.78;4165681;28;20048;-62
2022/10/26 02:13:59;;;;;;;10.68;4.18;;;;;;;15.81;57.94;95082.81;4174220;28;20489;-63
2022/10/26 02:16:19;;;;;;;11.90;4.55;;;;;;;15.84;57.78;95080.66;4164039;28;20551;-63
2022/10/26 02:19:00;;;;;;;14.13;4.55;;;;;;;15.70;58.31;95095.47;4174631;28;20132;-63
2022/10/26 02:21:16;;;;;;;13.02;4.60;;;;;;;15.61;58.59;95091.25;4167342;28;20056;-61
2022/10/26 02:23:17;;;;;;;9.18;4.72;;;;;;;15.47;59.07;95090.25;4177972;28;20061;-62
2022/10/26 02:25:23;;;;;;;8.57;4.30;;;;;;;15.44;59.29;95090.59;4164400;28;20084;-63
2022/10/26 02:27:29;;;;;;;11.05;4.70;;;;;;;15.40;59.57;95089.34;4178370;28;20053;-64
2022/10/26 02:29:32;;;;;;;12.88;4.50;;;;;;;15.49;59.34;95093.53;4178166;28;20111;-66
2022/10/26 02:31:34;;;;;;;8.05;4.78;;;;;;;15.56;59.08;95090.97;4172984;28;20057;-63
2022/10/26 02:33:40;;;;;;;20.83;13.25;;;;;;;15.38;59.33;95086.06;4175303;28;20105;-63
2022/10/26 02:35:45;;;;;;;30.25;22.58;;;;;;;15.22;59.93;95094.09;4181093;28;20052;-62
2022/10/26 02:37:47;;;;;;;17.83;11.10;;;;;;;15.04;61.22;95097.06;4176528;28;20143;-63
2022/10/26 02:39:50;;;;;;;30.27;21.38;;;;;;;14.83;62.37;95097.69;4170451;28;20081;-63
2022/10/26 02:41:52;;;;;;;27.80;17.83;;;;;;;14.54;63.31;95100.00;4154209;28;20674;-61
2022/10/26 02:44:10;;;;;;;25.08;15.77;;;;;;;14.49;63.54;95102.31;4163413;28;20057;-63
2022/10/26 02:46:14;;;;;;;48.17;31.33;;;;;;;14.68;63.16;95098.44;4166958;28;20520;-63
2022/10/26 02:48:16;;;;;;;63.03;36.22;;;;;;;14.42;63.83;95097.91;4166955;28;20053;-67
2022/10/26 02:50:23;;;;;;;65.22;33.53;;;;;;;14.41;63.85;95101.53;4162320;28;20054;-64
2022/10/26 02:52:33;;;;;;;131.38;52.70;;;;;;;14.26;64.11;95093.53;4177231;28;20413;-63
2022/10/26 02:55:06;;;;;;;146.93;54.35;;;;;;;14.24;64.49;95101.63;4161962;28;20057;-62
2022/10/26 02:57:18;;;;;;;150.80;54.65;;;;;;;14.41;63.85;95093.63;4176829;28;20091;-63
2022/10/26 02:59:21;;;;;;;415.15;139.60;;;;;;;14.49;63.74;95101.50;4181298;28;20080;-63
2022/10/26 03:01:23;;;;;;;303.00;96.00;;;;;;;14.49;63.75;95096.22;4167586;28;20054;-62
2022/10/26 03:03:25;;;;;;;169.80;56.22;;;;;;;14.40;63.89;95102.53;4160571;28;20057;-61
2022/10/26 03:05:28;;;;;;;255.07;78.80;;;;;;;14.32;63.81;95101.56;4163086;28;20059;-62
2022/10/26 03:07:30;;;;;;;;;;;;;;;14.29;64.38;95115.09;4172364;28;20057;-64
2022/10/26 03:09:31;;;;;;;18.33;8.10;;;;;;;14.03;65.20;95120.63;4170187;28;19975;-64
2022/10/26 03:11:33;;;;;;;21.45;9.07;;;;;;;13.96;65.48;95126.75;4165949;28;20084;-63
2022/10/26 03:13:35;;;;;;;22.92;10.38;;;;;;;13.65;66.45;95124.84;4163827;28;20052;-63
2022/10/26 03:15:37;;;;;;;28.65;11.23;;;;;;;13.71;66.71;95127.63;4176676;28;20128;-61
2022/10/26 03:17:38;;;;;;;116.72;38.97;;;;;;;13.56;67.56;95133.75;4176831;28;20057;-63
2022/10/26 03:19:40;;;;;;;46.75;17.55;;;;;;;13.54;67.68;95136.53;4178129;28;20051;-64
2022/10/26 03:21:42;;;;;;;129.70;45.88;;;;;;;13.44;67.96;95138.53;4161853;28;20172;-62
2022/10/26 03:23:46;;;;;;;107.32;36.92;;;;;;;13.42;68.36;95143.97;4178123;28;20162;-62
2022/10/26 03:25:48;;;;;;;29.38;12.25;;;;;;;13.50;68.12;95145.75;4177681;28;20432;-63
2022/10/26 03:27:59;;;;;;;61.90;22.25;;;;;;;13.60;68.18;95142.97;4177976;28;20156;-63
2022/10/26 03:30:01;;;;;;;42.67;16.90;;;;;;;13.71;67.47;95145.25;4173585;28;20076;-64
2022/10/26 03:32:03;;;;;;;51.13;20.30;;;;;;;13.76;67.35;95147.38;4175499;28;20049;-62
2022/10/26 03:34:05;;;;;;;71.70;24.20;;;;;;;13.80;67.59;95136.31;4168675;28;20136;-64
2022/10/26 03:36:07;;;;;;;108.88;38.13;;;;;;;13.70;68.07;95146.22;4176837;28;20474;-62
2022/10/26 03:38:09;;;;;;;38.22;16.15;;;;;;;13.69;67.97;95142.75;4177889;28;20049;-64
2022/10/26 03:40:16;;;;;;;141.07;43.88;;;;;;;13.65;68.05;95145.91;4177572;28;20056;-63
2022/10/26 03:42:18;;;;;;;63.53;25.40;;;;;;;13.71;68.10;95145.25;4176736;28;20151;-64
2022/10/26 03:44:19;;;;;;;128.07;45.92;;;;;;;13.62;68.21;95144.44;4160696;28;20049;-63
2022/10/26 03:46:21;;;;;;;98.95;38.10;;;;;;;13.63;68.07;95140.78;4166752;28;20566;-63
2022/10/26 03:48:23;;;;;;;54.10;24.65;;;;;;;13.79;67.82;95147.88;4167017;28;20054;-64
2022/10/26 03:50:24;;;;;;;30.30;15.10;;;;;;;13.94;67.47;95142.72;4178754;28;20053;-64
2022/10/26 03:52:26;;;;;;;23.63;11.10;;;;;;;14.13;66.80;95146.75;4179424;28;20077;-62
2022/10/26 03:54:28;;;;;;;22.65;10.98;;;;;;;14.26;66.12;95138.31;4167816;28;20124;-61
2022/10/26 03:56:29;;;;;;;24.48;10.77;;;;;;;14.37;65.82;95142.41;4173501;28;20045;-64
2022/10/26 03:58:31;;;;;;;24.10;11.63;;;;;;;14.40;65.88;95134.97;4175159;28;20057;-62
2022/10/26 04:00:33;;;;;;;75.63;30.33;;;;;;;14.17;66.36;95137.53;4178332;28;20139;-63
2022/10/26 04:02:34;;;;;;;35.30;14.85;;;;;;;14.10;66.75;95147.94;4168828;28;20044;-63
2022/10/26 04:04:36;;;;;;;36.47;16.83;;;;;;;14.16;66.20;95135.91;4173316;28;20144;-63
2022/10/26 04:06:38;;;;;;;26.55;10.43;;;;;;;14.21;66.21;95141.47;4164675;28;20049;-63
2022/10/26 04:08:39;;;;;;;21.85;9.95;;;;;;;14.21;65.75;95141.47;4177473;28;20057;-64
2022/10/26 04:10:41;;;;;;;20.40;8.55;;;;;;;14.01;65.90;95148.97;4168796;28;20079;-65
2022/10/26 04:12:43;;;;;;;15.73;7.53;;;;;;;14.13;65.82;95138.84;4172624;28;20132;-62
2022/10/26 04:14:44;;;;;;;14.68;7.57;;;;;;;14.10;65.71;95145.28;4176437;28;20077;-63
2022/10/26 04:16:46;;;;;;;11.63;6.68;;;;;;;14.06;66.13;95148.44;4174879;28;20474;-63
2022/10/26 04:18:47;;;;;;;16.67;7.78;;;;;;;14.03;65.85;95151.44;4179535;28;20179;-64
2022/10/26 04:20:49;;;;;;;21.85;7.93;;;;;;;14.03;65.88;95151.44;4178117;28;20651;-62
2022/10/26 04:23:02;;;;;;;15.77;7.25;;;;;;;13.87;66.35;95149.63;4170755;28;20474;-64
2022/10/26 04:25:05;;;;;;;12.38;7.03;;;;;;;13.65;66.85;95149.34;4176878;28;20472;-64
2022/10/26 04:27:07;;;;;;;13.20;6.00;;;;;;;13.58;67.62;95152.84;4151548;28;20132;-63
2022/10/26 04:29:09;;;;;;;12.32;6.43;;;;;;;13.72;67.38;95152.97;4180376;28;20049;-66
2022/10/26 04:31:11;;;;;;;10.27;6.68;;;;;;;13.91;67.06;95146.50;4168379;28;20056;-64
2022/10/26 04:33:12;;;;;;;17.75;6.90;;;;;;;14.06;66.71;95145.81;4178821;28;20060;-65
2022/10/26 04:35:14;;;;;;;12.35;6.80;;;;;;;14.10;66.97;95149.75;4164045;28;20153;-66
2022/10/26 04:37:16;;;;;;;16.15;7.78;;;;;;;14.19;66.79;95155.81;4164102;28;20057;-67
2022/10/26 04:39:17;;;;;;;12.38;6.35;;;;;;;14.22;66.34;95153.66;4179026;28;20473;-63
2022/10/26 04:41:19;;;;;;;16.55;7.68;;;;;;;14.22;66.41;95153.66;4179706;28;20413;-66
2022/10/26 04:43:21;;;;;;;17.35;7.30;;;;;;;14.27;66.07;95159.25;4180483;28;20107;-63
2022/10/26 04:45:22;;;;;;;16.88;6.97;;;;;;;14.35;65.81;95158.41;4178090;28;20140;-64
2022/10/26 04:47:24;;;;;;;13.27;7.30;;;;;;;14.41;65.78;95162.16;4179668;28;20055;-64
2022/10/26 04:49:26;;;;;;;20.13;8.55;;;;;;;14.38;65.53;95158.03;4180315;28;20072;-65
2022/10/26 04:51:28;;;;;;;15.65;8.00;;;;;;;14.42;65.41;95163.81;4178937;28;20045;-65
2022/10/26 04:53:29;;;;;;;15.13;7.00;;;;;;;14.44;64.98;95167.09;4180134;28;20049;-65
2022/10/26 04:55:31;;;;;;;17.52;6.93;;;;;;;14.48;65.18;95165.75;4179987;28;20052;-64
2022/10/26 04:57:33;;;;;;;12.73;5.88;;;;;;;14.50;64.80;95166.41;4165776;28;20046;-65
2022/10/26 04:59:35;;;;;;;13.27;5.80;;;;;;;14.54;64.13;95163.25;4163473;28;20080;-64
2022/10/26 05:01:36;;;;;;;13.60;6.47;;;;;;;14.61;64.00;95167.88;4161977;28;20149;-63
2022/10/26 05:03:38;;;;;;;10.40;5.53;;;;;;;14.63;64.14;95169.34;4163927;28;20056;-64
2022/10/26 05:05:39;;;;;;;14.13;7.18;;;;;;;14.47;64.47;95175.47;4178950;28;20057;-63
2022/10/26 05:07:41;;;;;;;12.80;6.50;;;;;;;14.32;64.37;95171.91;4179807;28;20053;-65
2022/10/26 05:09:43;;;;;;;17.25;6.07;;;;;;;14.31;64.58;95172.91;4179533;28;20049;-64
2022/10/26 05:11:45;;;;;;;14.93;6.35;;;;;;;14.13;64.92;95170.47;4166500;28;20128;-63
2022/10/26 05:13:47;;;;;;;10.15;6.13;;;;;;;14.00;65.64;95175.47;4166776;28;20141;-66
2022/10/26 05:15:52;;;;;;;16.50;7.03;;;;;;;14.12;65.56;95168.84;4178383;28;20064;-62
2022/10/26 05:18:02;;;;;;;26.02;7.82;;;;;;;14.21;64.86;95172.28;4168695;28;20139;-63
2022/10/26 05:20:05;;;;;;;17.98;7.63;;;;;;;14.29;64.90;95170.44;4177181;28;20052;-64
2022/10/26 05:22:06;;;;;;;15.38;7.32;;;;;;;14.59;64.23;95168.03;4162855;28;20048;-64
2022/10/26 05:24:08;;;;;;;18.75;6.30;;;;;;;14.77;63.72;95162.50;4172116;28;20288;-65
2022/10/26 05:26:12;;;;;;;17.40;7.63;;;;;;;14.89;63.26;95173.50;4163062;28;20682;-66
2022/10/26 05:28:16;;;;;;;21.95;7.97;;;;;;;14.94;62.82;95173.78;4176687;28;20083;-65
2022/10/26 05:30:17;;;;;;;17.77;6.95;;;;;;;14.92;62.88;95170.50;4161475;28;20152;-65
2022/10/26 05:32:19;;;;;;;20.75;9.45;;;;;;;14.87;62.79;95183.41;4177467;28;20151;-65
2022/10/26 05:34:21;;;;;;;25.73;10.65;;;;;;;14.89;62.92;95176.13;4194308;28;20154;-66
2022/10/26 05:36:22;;;;;;;29.38;9.68;;;;;;;14.75;63.60;95185.59;4165005;28;20045;-65
2022/10/26 05:38:24;;;;;;;15.75;8.35;;;;;;;14.76;63.72;95191.72;4171196;28;20083;-63
2022/10/26 05:40:26;;;;;;;16.48;6.88;;;;;;;14.85;63.68;95188.84;4160065;28;20671;-65
2022/10/26 05:42:28;;;;;;;16.15;7.70;;;;;;;14.95;63.13;95196.53;4160254;28;20054;-67
2022/10/26 05:44:30;;;;;;;15.38;5.75;;;;;;;14.99;63.09;95189.91;4160202;28;20069;-66
2022/10/26 05:46:31;;;;;;;12.20;6.53;;;;;;;15.03;63.07;95188.56;4150344;28;20054;-66
2022/10/26 05:48:33;;;;;;;13.32;6.03;;;;;;;15.04;63.13;95197.31;4156778;28;20140;-66
2022/10/26 05:50:35;;;;;;;20.00;6.80;;;;;;;15.10;63.08;95192.16;4160138;28;21943;-68
2022/10/26 05:52:40;;;;;;;17.10;7.43;;;;;;;15.19;62.78;95203.47;4158847;28;20081;-66
2022/10/26 05:54:42;;;;;;;20.35;7.10;;;;;;;14.92;63.54;95204.78;4144195;28;20564;-65
2022/10/26 05:56:44;;;;;;;13.05;6.45;;;;;;;14.67;64.60;95204.94;4143893;28;20133;-65
2022/10/26 05:58:46;;;;;;;19.65;7.35;;;;;;;14.63;65.26;95208.09;4165183;28;20067;-63
2022/10/26 06:01:00;;;;;;;20.63;7.15;;;;;;;14.57;64.95;95212.22;4164496;28;20092;-64
2022/10/26 06:03:17;;;;;;;13.57;7.15;;;;;;;14.68;64.81;95211.81;4171401;28;20125;-66
2022/10/26 06:05:26;;;;;;;18.67;7.78;;;;;;;14.91;64.38;95211.88;4162977;28;20045;-66
2022/10/26 06:07:27;;;;;;;21.83;7.63;;;;;;;15.13;64.08;95220.81;4163278;28;20045;-65
2022/10/26 06:09:29;;;;;;;17.05;6.95;;;;;;;15.29;63.36;95219.06;4170787;28;20123;-65
2022/10/26 06:11:31;;;;;;;23.38;8.85;;;;;;;15.43;62.72;95215.69;4178600;28;20136;-64
2022/10/26 06:13:33;;;;;;;17.85;8.35;;;;;;;15.57;62.53;95222.84;4177932;28;20084;-67
2022/10/26 06:15:44;;;;;;;23.50;9.90;;;;;;;15.68;62.12;95228.69;4172757;28;20124;-63
2022/10/26 06:18:03;;;;;;;22.00;8.10;;;;;;;15.75;61.86;95230.47;4163757;28;20132;-66
2022/10/26 06:20:12;;;;;;;26.38;8.90;;;;;;;15.72;61.98;95230.84;4175681;28;20127;-64
2022/10/26 06:22:29;;;;;;;15.05;7.40;;;;;;;15.36;62.90;95233.22;4189144;28;20596;-65
2022/10/26 06:24:50;;;;;;;16.48;6.78;;;;;;;15.36;63.16;95234.06;4173021;28;20180;-64
2022/10/26 06:27:02;;;;;;;13.20;7.28;;;;;;;15.51;62.81;95226.19;4162076;28;20079;-66
2022/10/26 06:29:25;;;;;;;17.08;7.50;;;;;;;15.40;63.07;95229.25;4161673;28;20131;-67
2022/10/26 06:31:27;;;;;;;16.30;7.57;;;;;;;15.52;63.14;95224.38;4173874;28;20076;-67
2022/10/26 06:33:29;;;;;;;18.67;7.32;;;;;;;15.35;63.66;95237.66;4178875;28;20214;-65
2022/10/26 06:35:39;;;;;;;22.42;7.10;;;;;;;15.23;64.23;95238.25;4175614;28;21316;-63
2022/10/26 06:37:44;;;;;;;12.70;7.03;;;;;;;15.35;63.80;95232.38;4166971;28;20091;-65
2022/10/26 06:39:48;;;;;;;16.17;7.22;;;;;;;15.53;63.56;95234.75;4168851;28;20081;-63
2022/10/26 06:41:56;;;;;;;12.40;6.55;;;;;;;15.69;62.84;95230.34;4176821;28;20087;-63
2022/10/26 06:43:58;;;;;;;15.05;7.03;;;;;;;15.89;62.42;95239.44;4164633;28;20137;-64
2022/10/26 06:46:18;;;;;;;19.55;7.57;;;;;;;16.08;61.69;95229.38;4175986;28;20045;-67
2022/10/26 06:48:24;;;;;;;11.73;5.88;;;;;;;16.26;60.65;95236.94;4177370;28;20049;-67
2022/10/26 06:50:51;;;;;;;12.63;5.40;;;;;;;16.32;60.28;95233.59;4192184;28;20095;-65
2022/10/26 06:53:00;;;;;;;9.85;6.25;;;;;;;16.28;60.51;95234.94;4178013;28;20045;-68
2022/10/26 06:55:03;;;;;;;13.05;6.15;;;;;;;16.15;60.98;95240.84;4178257;28;20124;-64
2022/10/26 06:57:08;;;;;;;11.10;6.35;;;;;;;15.91;61.50;95245.38;4168306;28;20060;-64
2022/10/26 06:59:28;;;;;;;10.50;5.85;;;;;;;16.01;61.39;95241.66;4164780;28;20057;-64
2022/10/26 07:01:30;;;;;;;11.40;5.93;;;;;;;16.14;61.32;95245.31;4175678;28;20171;-65
2022/10/26 07:03:32;;;;;;;15.07;5.95;;;;;;;16.12;61.24;95257.09;4179032;28;20061;-66
2022/10/26 07:05:33;;;;;;;8.05;5.40;;;;;;;16.03;61.66;95255.53;4193672;28;20188;-66
2022/10/26 07:07:39;;;;;;;10.55;5.53;;;;;;;15.97;61.53;95252.56;4172460;28;20144;-65
2022/10/26 07:09:41;;;;;;;12.18;4.82;;;;;;;15.73;62.22;95248.31;4171369;28;20080;-64
2022/10/26 07:11:43;;;;;;;7.63;4.82;;;;;;;15.72;62.22;95256.41;4165041;28;20148;-65
2022/10/26 07:13:44;;;;;;;7.70;5.05;;;;;;;15.61;62.49;95254.16;4175871;28;20081;-68
2022/10/26 07:15:46;;;;;;;13.15;4.90;;;;;;;15.44;63.42;95259.56;4161812;28;20081;-66
2022/10/26 07:17:49;;;;;;;8.52;5.10;;;;;;;15.46;63.43;95251.47;4167266;28;20437;-68
2022/10/26 07:19:51;;;;;;;12.85;6.72;;;;;;;15.49;63.26;95253.78;4176057;28;20512;-66
2022/10/26 07:21:58;;;;;;;14.45;6.75;;;;;;;15.69;62.90;95247.00;4178132;28;20059;-67
2022/10/26 07:23:59;;;;;;;21.33;7.72;;;;;;;15.87;61.97;95259.94;4173450;28;20520;-67
2022/10/26 07:26:01;;;;;;;15.35;9.10;;;;;;;15.87;62.43;95256.47;4171518;28;20095;-65
2022/10/26 07:28:03;;;;;;;25.15;11.80;;;;;;;15.96;62.09;95253.59;4176669;28;20145;-67
2022/10/26 07:30:05;;;;;;;20.50;10.68;;;;;;;16.07;61.33;95252.34;4165374;28;20125;-65
2022/10/26 07:32:07;;;;;;;12.77;6.10;;;;;;;16.17;61.28;95252.06;4172794;28;20127;-64
2022/10/26 07:34:09;;;;;;;16.08;7.70;;;;;;;16.29;61.49;95250.63;4168283;28;20088;-65
2022/10/26 07:36:11;;;;;;;14.82;7.07;;;;;;;16.31;60.83;95248.63;4181056;28;20551;-64
2022/10/26 07:38:12;;;;;;;15.50;7.90;;;;;;;16.33;60.84;95241.34;4167870;28;20536;-66
2022/10/26 07:40:14;;;;;;;16.15;7.43;;;;;;;16.47;60.68;95252.09;4180549;28;20159;-64
2022/10/26 07:42:16;;;;;;;15.23;7.55;;;;;;;16.51;60.47;95256.03;4167546;28;20053;-65
2022/10/26 07:44:18;;;;;;;11.63;6.47;;;;;;;16.51;60.72;95253.38;4168757;28;20132;-64
2022/10/26 07:46:19;;;;;;;11.90;6.50;;;;;;;16.71;60.41;95246.56;4180202;28;20044;-67
2022/10/26 07:48:21;;;;;;;9.73;5.45;;;;;;;16.91;59.51;95244.19;4181826;28;20141;-65
2022/10/26 07:50:23;;;;;;;14.65;5.55;;;;;;;17.22;59.03;95244.94;4167031;28;20057;-68
2022/10/26 07:52:25;;;;;;;21.23;6.60;;;;;;;16.99;58.90;95243.25;4177998;28;20128;-64
2022/10/26 07:54:26;;;;;;;10.30;6.35;;;;;;;16.78;59.44;95247.44;4168106;28;20141;-64
2022/10/26 07:56:28;;;;;;;17.55;8.75;;;;;;;16.51;60.32;95240.97;4180887;28;20055;-64
2022/10/26 07:58:30;;;;;;;15.40;8.00;;;;;;;16.68;60.09;95236.31;4181215;28;20079;-65
2022/10/26 08:00:32;;;;;;;13.57;7.18;;;;;;;16.78;60.24;95244.81;4178591;28;20057;-67
2022/10/26 08:02:34;;;;;;;9.43;5.75;;;;;;;16.95;59.63;95241.97;4164477;28;20053;-65
2022/10/26 08:04:35;;;;;;;11.40;5.72;;;;;;;16.91;58.96;95244.19;4172414;28;20048;-65
2022/10/26 08:06:37;;;;;;;9.60;5.93;;;;;;;16.87;59.35;95240.25;4169687;28;20052;-65
2022/10/26 08:08:39;;;;;;;15.05;5.50;;;;;;;17.04;58.71;95238.22;4178743;28;20053;-65
2022/10/26 08:10:47;;;;;;;13.98;5.38;;;;;;;17.25;58.81;95232.16;4180671;28;20049;-66
2022/10/26 08:12:51;;;;;;;10.00;4.78;;;;;;;17.52;57.78;95235.88;4180669;28;20076;-64
2022/10/26 08:14:53;;;;;;;7.53;4.22;;;;;;;17.78;57.45;95239.78;4180972;28;20107;-66
2022/10/26 08:16:54;;;;;;;9.25;4.45;;;;;;;17.90;56.51;95242.78;4173432;28;20049;-66
2022/10/26 08:18:56;;;;;;;8.27;4.65;;;;;;;18.09;56.45;95243.94;4180655;28;20088;-65
2022/10/26 08:21:04;;;;;;;6.82;4.18;;;;;;;17.71;55.65;95237.09;4171668;28;20088;-65
2022/10/26 08:23:12;;;;;;;10.77;4.43;;;;;;;17.64;55.68;95246.81;4177290;28;20053;-64
2022/10/26 08:25:13;;;;;;;9.20;4.38;;;;;;;17.27;56.87;95245.19;4167067;28;20399;-68
2022/10/26 08:27:20;;;;;;;6.82;4.15;;;;;;;17.35;56.33;95237.94;4179709;28;20053;-63
2022/10/26 08:29:22;;;;;;;12.38;4.80;;;;;;;17.29;56.99;95237.88;4180686;28;20085;-69
2022/10/26 08:31:24;;;;;;;8.70;4.30;;;;;;;17.44;56.72;95230.72;4177603;28;20183;-69
2022/10/26 08:33:25;;;;;;;13.63;4.10;;;;;;;17.75;56.36;95233.06;4180604;28;20041;-65
2022/10/26 08:35:27;;;;;;;9.43;4.20;;;;;;;18.10;55.68;95230.50;4180053;28;20049;-64
2022/10/26 08:37:29;;;;;;;8.77;3.88;;;;;;;18.37;54.81;95226.22;4178772;28;20048;-65
2022/10/26 08:39:31;;;;;;;10.25;4.30;;;;;;;18.65;53.57;95233.31;4174513;28;20501;-65
2022/10/26 08:41:40;;;;;;;8.45;4.30;;;;;;;18.80;53.33;95226.06;4171967;28;20107;-67
2022/10/26 08:43:48;;;;;;;9.45;4.43;;;;;;;18.93;52.95;95232.44;4164011;28;20073;-65
2022/10/26 08:46:01;;;;;;;11.00;5.07;;;;;;;18.86;53.06;95234.25;4174217;28;20581;-64
2022/10/26 08:48:13;;;;;;;9.57;4.60;;;;;;;18.56;53.32;95235.31;4163816;28;20049;-65
2022/10/26 08:50:26;;;;;;;9.95;4.35;;;;;;;18.42;53.72;95236.25;4175642;28;20045;-64
2022/10/26 08:52:53;;;;;;;7.60;4.30;;;;;;;18.55;53.59;95232.84;4177126;28;20088;-64
2022/10/26 08:54:56;;;;;;;8.85;3.78;;;;;;;18.55;52.44;95238.16;4174309;28;20049;-64
2022/10/26 08:57:00;;;;;;;7.53;3.57;;;;;;;18.57;51.92;95241.44;4167435;28;20128;-63
2022/10/26 08:59:12;;;;;;;11.25;3.95;;;;;;;18.89;51.95;95245.31;4176835;28;20139;-66
2022/10/26 09:01:14;;;;;;;8.23;4.13;;;;;;;19.11;51.51;95243.34;4170655;28;20128;-59
2022/10/26 09:03:17;;;;;;;9.63;4.47;;;;;;;19.02;51.17;95241.91;4173373;28;20425;-61
2022/10/26 09:05:38;;;;;;;9.30;4.85;;;;;;;18.75;51.54;95252.34;4165102;28;20458;-60
2022/10/26 09:07:58;;;;;;;10.80;4.57;;;;;;;18.91;51.50;95243.28;4178087;28;20045;-61
2022/10/26 09:10:26;;;;;;;8.13;3.08;;;;;;;19.13;50.14;95248.47;4179001;28;20137;-58
2022/10/26 09:12:47;;;;;;;7.20;3.35;;;;;;;19.46;49.11;95237.94;4178839;28;20045;-61
2022/10/26 09:15:07;;;;;;;9.68;3.42;;;;;;;19.77;48.44;95241.91;4177786;28;20110;-61
2022/10/26 09:17:21;;;;;;;7.50;4.00;;;;;;;19.97;48.19;95232.09;4168310;28;20045;-62
2022/10/26 09:19:49;;;;;;;6.55;3.33;;;;;;;20.25;48.08;95236.41;4179735;28;20045;-60
2022/10/26 09:21:57;;;;;;;6.93;3.90;;;;;;;20.32;47.74;95229.22;4178523;28;20133;-60
2022/10/26 09:24:14;;;;;;;6.55;3.38;;;;;;;20.45;47.60;95231.84;4170993;28;20219;-61
2022/10/26 09:26:28;;;;;;;16.08;3.28;;;;;;;20.62;47.34;95223.47;4175368;28;20049;-61
2022/10/26 09:28:35;;;;;;;18.05;4.68;;;;;;;20.76;47.04;95224.25;4163260;28;20413;-65
2022/10/26 09:30:37;;;;;;;7.43;3.20;;;;;;;20.69;46.51;95226.91;4168930;28;20072;-66
2022/10/26 09:32:45;;;;;;;7.57;3.88;;;;;;;20.69;46.39;95223.44;4177249;28;20041;-68
2022/10/26 09:34:51;;;;;;;6.80;3.45;;;;;;;20.80;46.34;95225.44;4177881;28;20135;-67
2022/10/26 09:36:55;;;;;;;4.38;3.20;;;;;;;20.78;46.10;95223.03;4185907;28;20076;-61
2022/10/26 09:39:12;;;;;;;8.18;3.22;;;;;;;20.89;46.24;95218.88;4170399;28;20084;-60
2022/10/26 09:41:25;;;;;;;11.20;3.65;;;;;;;20.83;45.91;95220.53;4159706;28;20132;-58
2022/10/26 09:43:42;;;;;;;7.50;3.75;;;;;;;20.78;46.22;95225.69;4183463;28;20113;-60
2022/10/26 09:45:46;;;;;;;9.38;4.72;;;;;;;20.63;46.13;95219.78;4175654;28;20106;-62